sensor_id;sensor_type;location;lat;lon;timestamp;P1;durP1;ratioP1;P2;durP2;ratioP2
20443;SDS011;10381;53.730;10.010;2023-03-14T00:02:26;28.03;;;20.87;;
20443;SDS011;10381;53.730;10.010;2023-03-14T00:06:27;33.88;;;20.77;;
20443;SDS011;10381;53.730;10.010;2023-03-14T00:10:27;29.27;;;20.13;;
20443;SDS011;10381;53.730;10.010;2023-03-14T00:14:28;25.00;;;20.67;;
20443;SDS011;10381;53.730;10.010;2023-03-14T00:18:29;38.95;;;21.90;;
20443;SDS011;10381;53.730;10.010;2023-03-14T00:22:30;30.07;;;22.47;;
20443;SDS011;10381;53.730;10.010;2023-03-14T00:26:31;34.22;;;23.85;;
20443;SDS011;10381;53.730;10.010;2023-03-14T00:30:31;30.02;;;23.20;;
20443;SDS011;10381;53.730;10.010;2023-03-14T00:34:32;25.83;;;22.77;;
20443;SDS011;10381;53.730;10.010;2023-03-14T00:38:33;24.80;;;22.33;;
20443;SDS011;10381;53.730;10.010;2023-03-14T00:42:33;25.02;;;22.35;;
20443;SDS011;10381;53.730;10.010;2023-03-14T00:46:34;28.58;;;22.88;;
20443;SDS011;10381;53.730;10.010;2023-03-14T00:50:34;26.67;;;22.80;;
20443;SDS011;10381;53.730;10.010;2023-03-14T00:54:35;26.43;;;22.20;;
20443;SDS011;10381;53.730;10.010;2023-03-14T00:58:35;27.63;;;21.47;;
20443;SDS011;10381;53.730;10.010;2023-03-14T01:02:36;30.67;;;20.25;;
20443;SDS011;10381;53.730;10.010;2023-03-14T01:06:36;22.53;;;20.33;;
20443;SDS011;10381;53.730;10.010;2023-03-14T01:10:38;23.98;;;20.20;;
20443;SDS011;10381;53.730;10.010;2023-03-14T01:14:40;35.15;;;19.80;;
20443;SDS011;10381;53.730;10.010;2023-03-14T01:18:40;22.63;;;19.30;;
20443;SDS011;10381;53.730;10.010;2023-03-14T01:22:43;25.27;;;20.05;;
20443;SDS011;10381;53.730;10.010;2023-03-14T01:26:44;20.45;;;18.48;;
20443;SDS011;10381;53.730;10.010;2023-03-14T01:30:44;34.67;;;17.88;;
20443;SDS011;10381;53.730;10.010;2023-03-14T01:34:44;30.50;;;19.40;;
20443;SDS011;10381;53.730;10.010;2023-03-14T01:38:44;30.00;;;18.63;;
20443;SDS011;10381;53.730;10.010;2023-03-14T01:42:55;22.50;;;20.33;;
20443;SDS011;10381;53.730;10.010;2023-03-14T01:46:56;25.65;;;22.30;;
20443;SDS011;10381;53.730;10.010;2023-03-14T01:50:57;25.60;;;22.80;;
20443;SDS011;10381;53.730;10.010;2023-03-14T01:55:01;26.30;;;23.50;;
20443;SDS011;10381;53.730;10.010;2023-03-14T01:59:06;33.83;;;24.73;;
20443;SDS011;10381;53.730;10.010;2023-03-14T02:03:10;25.55;;;22.58;;
20443;SDS011;10381;53.730;10.010;2023-03-14T02:07:18;32.65;;;23.60;;
20443;SDS011;10381;53.730;10.010;2023-03-14T02:11:22;25.42;;;22.08;;
20443;SDS011;10381;53.730;10.010;2023-03-14T02:15:28;26.17;;;22.75;;
20443;SDS011;10381;53.730;10.010;2023-03-14T02:19:33;34.38;;;24.13;;
20443;SDS011;10381;53.730;10.010;2023-03-14T02:23:53;30.05;;;23.95;;
20443;SDS011;10381;53.730;10.010;2023-03-14T02:28:16;30.67;;;22.75;;
20443;SDS011;10381;53.730;10.010;2023-03-14T02:32:17;29.10;;;24.75;;
20443;SDS011;10381;53.730;10.010;2023-03-14T02:36:20;28.85;;;25.85;;
20443;SDS011;10381;53.730;10.010;2023-03-14T02:40:21;27.90;;;25.10;;
20443;SDS011;10381;53.730;10.010;2023-03-14T02:44:21;28.00;;;25.02;;
20443;SDS011;10381;53.730;10.010;2023-03-14T02:48:23;28.97;;;25.60;;
20443;SDS011;10381;53.730;10.010;2023-03-14T02:52:26;29.73;;;26.83;;
20443;SDS011;10381;53.730;10.010;2023-03-14T02:56:26;37.53;;;24.40;;
20443;SDS011;10381;53.730;10.010;2023-03-14T03:00:26;30.30;;;27.00;;
20443;SDS011;10381;53.730;10.010;2023-03-14T03:04:26;29.20;;;26.07;;
20443;SDS011;10381;53.730;10.010;2023-03-14T03:08:27;29.03;;;26.07;;
20443;SDS011;10381;53.730;10.010;2023-03-14T03:12:28;28.55;;;25.67;;
20443;SDS011;10381;53.730;10.010;2023-03-14T03:16:28;26.80;;;23.63;;
20443;SDS011;10381;53.730;10.010;2023-03-14T03:20:28;29.27;;;24.63;;
20443;SDS011;10381;53.730;10.010;2023-03-14T03:24:29;29.30;;;23.33;;
20443;SDS011;10381;53.730;10.010;2023-03-14T03:28:29;24.87;;;22.47;;
20443;SDS011;10381;53.730;10.010;2023-03-14T03:32:30;25.35;;;22.52;;
20443;SDS011;10381;53.730;10.010;2023-03-14T03:36:30;30.33;;;24.53;;
20443;SDS011;10381;53.730;10.010;2023-03-14T03:40:30;29.20;;;23.17;;
20443;SDS011;10381;53.730;10.010;2023-03-14T03:44:31;28.03;;;22.13;;
20443;SDS011;10381;53.730;10.010;2023-03-14T03:48:31;26.77;;;22.00;;
20443;SDS011;10381;53.730;10.010;2023-03-14T03:52:31;24.83;;;21.90;;
20443;SDS011;10381;53.730;10.010;2023-03-14T03:56:31;27.80;;;22.07;;
20443;SDS011;10381;53.730;10.010;2023-03-14T04:00:32;24.57;;;22.03;;
20443;SDS011;10381;53.730;10.010;2023-03-14T04:04:33;22.55;;;20.25;;
20443;SDS011;10381;53.730;10.010;2023-03-14T04:08:33;29.83;;;22.40;;
20443;SDS011;10381;53.730;10.010;2023-03-14T04:12:33;25.90;;;23.10;;
20443;SDS011;10381;53.730;10.010;2023-03-14T04:16:34;25.63;;;22.03;;
20443;SDS011;10381;53.730;10.010;2023-03-14T04:20:34;29.33;;;23.42;;
20443;SDS011;10381;53.730;10.010;2023-03-14T04:24:35;26.02;;;22.83;;
20443;SDS011;10381;53.730;10.010;2023-03-14T04:28:35;25.70;;;23.20;;
20443;SDS011;10381;53.730;10.010;2023-03-14T04:32:38;28.52;;;23.73;;
20443;SDS011;10381;53.730;10.010;2023-03-14T04:36:39;29.08;;;22.08;;
20443;SDS011;10381;53.730;10.010;2023-03-14T04:40:40;22.85;;;20.13;;
20443;SDS011;10381;53.730;10.010;2023-03-14T04:44:41;23.50;;;20.35;;
20443;SDS011;10381;53.730;10.010;2023-03-14T04:48:43;18.05;;;16.45;;
20443;SDS011;10381;53.730;10.010;2023-03-14T04:52:43;17.87;;;16.37;;
20443;SDS011;10381;53.730;10.010;2023-03-14T04:56:43;19.87;;;18.07;;
20443;SDS011;10381;53.730;10.010;2023-03-14T05:00:44;21.63;;;19.30;;
20443;SDS011;10381;53.730;10.010;2023-03-14T05:04:45;24.50;;;22.05;;
20443;SDS011;10381;53.730;10.010;2023-03-14T05:08:45;29.67;;;27.15;;
20443;SDS011;10381;53.730;10.010;2023-03-14T05:12:45;31.27;;;28.37;;
20443;SDS011;10381;53.730;10.010;2023-03-14T05:16:46;32.97;;;29.23;;
20443;SDS011;10381;53.730;10.010;2023-03-14T05:20:46;30.98;;;27.95;;
20443;SDS011;10381;53.730;10.010;2023-03-14T05:24:46;40.03;;;33.53;;
20443;SDS011;10381;53.730;10.010;2023-03-14T05:28:47;54.80;;;49.10;;
20443;SDS011;10381;53.730;10.010;2023-03-14T05:32:47;257.73;;;232.80;;
20443;SDS011;10381;53.730;10.010;2023-03-14T05:36:48;415.15;;;372.80;;
20443;SDS011;10381;53.730;10.010;2023-03-14T05:40:48;523.73;;;471.20;;
20443;SDS011;10381;53.730;10.010;2023-03-14T05:44:48;608.58;;;550.13;;
20443;SDS011;10381;53.730;10.010;2023-03-14T05:48:48;722.43;;;654.33;;
20443;SDS011;10381;53.730;10.010;2023-03-14T05:52:49;794.27;;;719.10;;
20443;SDS011;10381;53.730;10.010;2023-03-14T05:56:49;784.17;;;710.50;;
20443;SDS011;10381;53.730;10.010;2023-03-14T06:00:50;812.93;;;736.77;;
20443;SDS011;10381;53.730;10.010;2023-03-14T06:04:51;813.08;;;737.30;;
20443;SDS011;10381;53.730;10.010;2023-03-14T06:08:52;813.83;;;738.55;;
20443;SDS011;10381;53.730;10.010;2023-03-14T06:12:52;797.95;;;724.83;;
20443;SDS011;10381;53.730;10.010;2023-03-14T06:16:53;803.30;;;730.20;;
20443;SDS011;10381;53.730;10.010;2023-03-14T06:20:54;769.90;;;699.92;;
20443;SDS011;10381;53.730;10.010;2023-03-14T06:24:56;788.25;;;716.53;;
20443;SDS011;10381;53.730;10.010;2023-03-14T06:28:56;733.47;;;666.23;;
20443;SDS011;10381;53.730;10.010;2023-03-14T06:32:57;760.67;;;691.15;;
20443;SDS011;10381;53.730;10.010;2023-03-14T06:36:57;735.20;;;668.00;;
20443;SDS011;10381;53.730;10.010;2023-03-14T06:41:02;694.07;;;630.10;;
20443;SDS011;10381;53.730;10.010;2023-03-14T06:45:04;595.50;;;538.03;;
20443;SDS011;10381;53.730;10.010;2023-03-14T06:49:05;415.67;;;372.70;;
20443;SDS011;10381;53.730;10.010;2023-03-14T06:53:05;281.93;;;251.83;;
20443;SDS011;10381;53.730;10.010;2023-03-14T06:57:07;169.97;;;151.37;;
20443;SDS011;10381;53.730;10.010;2023-03-14T07:01:14;141.90;;;127.13;;
20443;SDS011;10381;53.730;10.010;2023-03-14T07:05:25;115.03;;;102.55;;
20443;SDS011;10381;53.730;10.010;2023-03-14T07:09:26;105.57;;;94.38;;
20443;SDS011;10381;53.730;10.010;2023-03-14T07:13:26;92.40;;;77.47;;
20443;SDS011;10381;53.730;10.010;2023-03-14T07:17:26;79.07;;;70.67;;
20443;SDS011;10381;53.730;10.010;2023-03-14T07:21:26;90.17;;;80.83;;
20443;SDS011;10381;53.730;10.010;2023-03-14T07:25:27;79.10;;;70.60;;
20443;SDS011;10381;53.730;10.010;2023-03-14T07:29:28;69.72;;;59.67;;
20443;SDS011;10381;53.730;10.010;2023-03-14T07:33:28;70.93;;;56.07;;
20443;SDS011;10381;53.730;10.010;2023-03-14T07:37:28;50.50;;;45.33;;
20443;SDS011;10381;53.730;10.010;2023-03-14T07:41:28;48.50;;;40.10;;
20443;SDS011;10381;53.730;10.010;2023-03-14T07:45:29;40.90;;;36.90;;
20443;SDS011;10381;53.730;10.010;2023-03-14T07:49:29;43.20;;;37.85;;
20443;SDS011;10381;53.730;10.010;2023-03-14T07:53:29;36.03;;;32.50;;
20443;SDS011;10381;53.730;10.010;2023-03-14T07:57:30;37.87;;;34.27;;
20443;SDS011;10381;53.730;10.010;2023-03-14T08:01:30;38.30;;;34.20;;
20443;SDS011;10381;53.730;10.010;2023-03-14T08:05:30;36.10;;;32.70;;
20443;SDS011;10381;53.730;10.010;2023-03-14T08:09:33;36.88;;;33.47;;
20443;SDS011;10381;53.730;10.010;2023-03-14T08:13:34;36.88;;;28.48;;
20443;SDS011;10381;53.730;10.010;2023-03-14T08:17:35;39.63;;;29.40;;
20443;SDS011;10381;53.730;10.010;2023-03-14T08:21:36;32.17;;;29.17;;
20443;SDS011;10381;53.730;10.010;2023-03-14T08:25:37;35.08;;;30.42;;
20443;SDS011;10381;53.730;10.010;2023-03-14T08:29:37;30.17;;;27.23;;
20443;SDS011;10381;53.730;10.010;2023-03-14T08:33:38;34.60;;;30.23;;
20443;SDS011;10381;53.730;10.010;2023-03-14T08:37:38;35.93;;;32.20;;
20443;SDS011;10381;53.730;10.010;2023-03-14T08:41:38;34.55;;;30.73;;
20443;SDS011;10381;53.730;10.010;2023-03-14T08:45:41;37.92;;;32.05;;
20443;SDS011;10381;53.730;10.010;2023-03-14T08:49:41;40.87;;;36.40;;
20443;SDS011;10381;53.730;10.010;2023-03-14T08:53:41;41.70;;;37.60;;
20443;SDS011;10381;53.730;10.010;2023-03-14T08:57:41;42.90;;;38.43;;
20443;SDS011;10381;53.730;10.010;2023-03-14T09:01:42;46.63;;;41.38;;
20443;SDS011;10381;53.730;10.010;2023-03-14T09:05:42;46.87;;;41.97;;
20443;SDS011;10381;53.730;10.010;2023-03-14T09:09:42;51.70;;;41.40;;
20443;SDS011;10381;53.730;10.010;2023-03-14T09:13:43;51.80;;;44.67;;
20443;SDS011;10381;53.730;10.010;2023-03-14T09:17:43;56.50;;;47.43;;
20443;SDS011;10381;53.730;10.010;2023-03-14T09:21:44;54.97;;;49.20;;
20443;SDS011;10381;53.730;10.010;2023-03-14T09:25:44;52.63;;;45.90;;
20443;SDS011;10381;53.730;10.010;2023-03-14T09:29:44;61.23;;;51.90;;
20443;SDS011;10381;53.730;10.010;2023-03-14T09:33:45;339.67;;;305.73;;
20443;SDS011;10381;53.730;10.010;2023-03-14T09:37:45;789.87;;;712.90;;
20443;SDS011;10381;53.730;10.010;2023-03-14T09:41:46;771.10;;;692.95;;
20443;SDS011;10381;53.730;10.010;2023-03-14T09:45:48;725.00;;;650.53;;
20443;SDS011;10381;53.730;10.010;2023-03-14T09:49:50;719.22;;;646.10;;
20443;SDS011;10381;53.730;10.010;2023-03-14T09:53:51;706.63;;;635.05;;
20443;SDS011;10381;53.730;10.010;2023-03-14T09:57:54;694.92;;;623.25;;
20443;SDS011;10381;53.730;10.010;2023-03-14T10:02:00;688.75;;;618.80;;
20443;SDS011;10381;53.730;10.010;2023-03-14T10:06:01;711.42;;;639.53;;
20443;SDS011;10381;53.730;10.010;2023-03-14T10:10:13;718.65;;;645.03;;
20443;SDS011;10381;53.730;10.010;2023-03-14T10:14:29;726.90;;;651.60;;
20443;SDS011;10381;53.730;10.010;2023-03-14T10:18:34;734.38;;;658.20;;
20443;SDS011;10381;53.730;10.010;2023-03-14T10:22:35;739.05;;;661.78;;
20443;SDS011;10381;53.730;10.010;2023-03-14T10:26:35;742.37;;;667.10;;
20443;SDS011;10381;53.730;10.010;2023-03-14T10:30:40;754.78;;;680.47;;
20443;SDS011;10381;53.730;10.010;2023-03-14T10:34:44;762.70;;;688.92;;
20443;SDS011;10381;53.730;10.010;2023-03-14T10:38:44;758.97;;;684.47;;
20443;SDS011;10381;53.730;10.010;2023-03-14T10:42:44;772.53;;;696.92;;
20443;SDS011;10381;53.730;10.010;2023-03-14T10:46:47;795.65;;;719.15;;
20443;SDS011;10381;53.730;10.010;2023-03-14T10:51:11;700.17;;;638.22;;
20443;SDS011;10381;53.730;10.010;2023-03-14T10:55:17;733.38;;;669.05;;
20443;SDS011;10381;53.730;10.010;2023-03-14T10:59:17;755.67;;;689.40;;
20443;SDS011;10381;53.730;10.010;2023-03-14T11:03:18;823.43;;;751.43;;
20443;SDS011;10381;53.730;10.010;2023-03-14T11:07:23;787.22;;;717.92;;
20443;SDS011;10381;53.730;10.010;2023-03-14T11:11:27;785.83;;;716.75;;
20443;SDS011;10381;53.730;10.010;2023-03-14T11:19:42;699.28;;;638.15;;
20443;SDS011;10381;53.730;10.010;2023-03-14T11:28:37;555.00;;;503.38;;
20443;SDS011;10381;53.730;10.010;2023-03-14T11:32:47;519.63;;;470.70;;
20443;SDS011;10381;53.730;10.010;2023-03-14T11:36:53;403.48;;;365.42;;
20443;SDS011;10381;53.730;10.010;2023-03-14T11:41:00;235.77;;;216.02;;
20443;SDS011;10381;53.730;10.010;2023-03-14T11:45:01;156.57;;;143.70;;
20443;SDS011;10381;53.730;10.010;2023-03-14T11:49:08;52.92;;;46.25;;
20443;SDS011;10381;53.730;10.010;2023-03-14T11:53:22;32.25;;;29.40;;
20443;SDS011;10381;53.730;10.010;2023-03-14T11:57:33;25.70;;;23.20;;
20443;SDS011;10381;53.730;10.010;2023-03-14T12:10:35;22.58;;;20.23;;
20443;SDS011;10381;53.730;10.010;2023-03-14T12:14:45;23.90;;;18.65;;
20443;SDS011;10381;53.730;10.010;2023-03-14T12:18:52;22.52;;;19.10;;
20443;SDS011;10381;53.730;10.010;2023-03-14T12:22:55;20.92;;;18.85;;
20443;SDS011;10381;53.730;10.010;2023-03-14T12:27:02;26.13;;;19.00;;
20443;SDS011;10381;53.730;10.010;2023-03-14T12:35:32;23.65;;;18.83;;
20443;SDS011;10381;53.730;10.010;2023-03-14T12:43:53;25.38;;;19.02;;
20443;SDS011;10381;53.730;10.010;2023-03-14T12:47:55;26.80;;;18.73;;
20443;SDS011;10381;53.730;10.010;2023-03-14T12:52:01;22.67;;;18.35;;
20443;SDS011;10381;53.730;10.010;2023-03-14T13:00:23;32.75;;;23.13;;
20443;SDS011;10381;53.730;10.010;2023-03-14T13:04:33;27.38;;;22.85;;
20443;SDS011;10381;53.730;10.010;2023-03-14T13:08:36;24.98;;;22.17;;
20443;SDS011;10381;53.730;10.010;2023-03-14T13:12:46;27.58;;;19.90;;
20443;SDS011;10381;53.730;10.010;2023-03-14T13:16:51;34.97;;;18.45;;
20443;SDS011;10381;53.730;10.010;2023-03-14T13:20:52;29.85;;;17.15;;
20443;SDS011;10381;53.730;10.010;2023-03-14T13:25:02;33.13;;;16.73;;
20443;SDS011;10381;53.730;10.010;2023-03-14T13:33:22;14.23;;;12.75;;
20443;SDS011;10381;53.730;10.010;2023-03-14T13:37:24;9.60;;;7.25;;
20443;SDS011;10381;53.730;10.010;2023-03-14T13:41:26;8.38;;;7.57;;
20443;SDS011;10381;53.730;10.010;2023-03-14T13:45:27;9.75;;;7.53;;
20443;SDS011;10381;53.730;10.010;2023-03-14T13:49:28;9.93;;;6.47;;
20443;SDS011;10381;53.730;10.010;2023-03-14T13:53:33;16.27;;;7.22;;
20443;SDS011;10381;53.730;10.010;2023-03-14T13:57:49;8.35;;;7.20;;
20443;SDS011;10381;53.730;10.010;2023-03-14T14:01:54;10.60;;;7.30;;
20443;SDS011;10381;53.730;10.010;2023-03-14T14:05:57;8.27;;;7.40;;
20443;SDS011;10381;53.730;10.010;2023-03-14T14:09:58;11.95;;;7.15;;
20443;SDS011;10381;53.730;10.010;2023-03-14T14:14:01;10.63;;;7.95;;
20443;SDS011;10381;53.730;10.010;2023-03-14T14:18:02;10.27;;;7.55;;
20443;SDS011;10381;53.730;10.010;2023-03-14T14:22:05;15.35;;;7.63;;
20443;SDS011;10381;53.730;10.010;2023-03-14T14:26:08;7.40;;;6.75;;
20443;SDS011;10381;53.730;10.010;2023-03-14T14:34:18;20.55;;;7.90;;
20443;SDS011;10381;53.730;10.010;2023-03-14T14:38:19;10.82;;;8.05;;
20443;SDS011;10381;53.730;10.010;2023-03-14T14:42:21;12.93;;;7.32;;
20443;SDS011;10381;53.730;10.010;2023-03-14T14:46:25;15.63;;;8.02;;
20443;SDS011;10381;53.730;10.010;2023-03-14T14:50:36;10.40;;;7.30;;
20443;SDS011;10381;53.730;10.010;2023-03-14T14:54:51;18.73;;;8.23;;
20443;SDS011;10381;53.730;10.010;2023-03-14T14:58:57;7.97;;;7.28;;
20443;SDS011;10381;53.730;10.010;2023-03-14T15:03:00;8.02;;;7.22;;
20443;SDS011;10381;53.730;10.010;2023-03-14T15:07:01;9.73;;;7.65;;
20443;SDS011;10381;53.730;10.010;2023-03-14T15:11:02;23.73;;;8.38;;
20443;SDS011;10381;53.730;10.010;2023-03-14T15:15:02;11.93;;;7.53;;
20443;SDS011;10381;53.730;10.010;2023-03-14T15:19:05;9.23;;;7.07;;
20443;SDS011;10381;53.730;10.010;2023-03-14T15:23:11;11.80;;;7.40;;
20443;SDS011;10381;53.730;10.010;2023-03-14T15:27:13;18.55;;;8.40;;
20443;SDS011;10381;53.730;10.010;2023-03-14T15:31:16;14.82;;;8.00;;
20443;SDS011;10381;53.730;10.010;2023-03-14T15:35:17;15.52;;;8.27;;
20443;SDS011;10381;53.730;10.010;2023-03-14T15:39:17;14.73;;;8.63;;
20443;SDS011;10381;53.730;10.010;2023-03-14T15:43:18;16.03;;;7.97;;
20443;SDS011;10381;53.730;10.010;2023-03-14T15:47:19;10.38;;;7.45;;
20443;SDS011;10381;53.730;10.010;2023-03-14T15:51:19;8.13;;;7.32;;
20443;SDS011;10381;53.730;10.010;2023-03-14T15:55:19;9.20;;;6.95;;
20443;SDS011;10381;53.730;10.010;2023-03-14T15:59:20;11.27;;;7.90;;
20443;SDS011;10381;53.730;10.010;2023-03-14T16:03:20;21.40;;;7.28;;
20443;SDS011;10381;53.730;10.010;2023-03-14T16:07:21;11.33;;;6.60;;
20443;SDS011;10381;53.730;10.010;2023-03-14T16:11:21;11.82;;;8.02;;
20443;SDS011;10381;53.730;10.010;2023-03-14T16:15:21;14.35;;;8.10;;
20443;SDS011;10381;53.730;10.010;2023-03-14T16:19:22;13.17;;;7.93;;
20443;SDS011;10381;53.730;10.010;2023-03-14T16:23:26;20.08;;;7.57;;
20443;SDS011;10381;53.730;10.010;2023-03-14T16:27:27;12.30;;;7.15;;
20443;SDS011;10381;53.730;10.010;2023-03-14T16:31:29;22.10;;;7.95;;
20443;SDS011;10381;53.730;10.010;2023-03-14T16:35:29;14.90;;;7.18;;
20443;SDS011;10381;53.730;10.010;2023-03-14T16:39:30;9.93;;;7.03;;
20443;SDS011;10381;53.730;10.010;2023-03-14T16:43:31;17.08;;;8.65;;
20443;SDS011;10381;53.730;10.010;2023-03-14T16:47:38;17.85;;;9.55;;
20443;SDS011;10381;53.730;10.010;2023-03-14T16:51:38;16.67;;;9.63;;
20443;SDS011;10381;53.730;10.010;2023-03-14T16:55:40;15.38;;;7.93;;
20443;SDS011;10381;53.730;10.010;2023-03-14T16:59:41;11.23;;;7.20;;
20443;SDS011;10381;53.730;10.010;2023-03-14T17:03:42;25.87;;;7.97;;
20443;SDS011;10381;53.730;10.010;2023-03-14T17:07:45;15.23;;;9.20;;
20443;SDS011;10381;53.730;10.010;2023-03-14T17:11:45;16.58;;;8.95;;
20443;SDS011;10381;53.730;10.010;2023-03-14T17:15:45;11.35;;;8.63;;
20443;SDS011;10381;53.730;10.010;2023-03-14T17:19:46;20.07;;;8.93;;
20443;SDS011;10381;53.730;10.010;2023-03-14T17:23:46;18.60;;;9.23;;
20443;SDS011;10381;53.730;10.010;2023-03-14T17:27:46;13.68;;;9.50;;
20443;SDS011;10381;53.730;10.010;2023-03-14T17:31:47;12.10;;;9.48;;
20443;SDS011;10381;53.730;10.010;2023-03-14T17:35:47;28.97;;;12.37;;
20443;SDS011;10381;53.730;10.010;2023-03-14T17:39:47;22.57;;;14.23;;
20443;SDS011;10381;53.730;10.010;2023-03-14T17:43:47;24.90;;;21.27;;
20443;SDS011;10381;53.730;10.010;2023-03-14T17:47:48;27.33;;;21.55;;
20443;SDS011;10381;53.730;10.010;2023-03-14T17:51:48;32.38;;;21.92;;
20443;SDS011;10381;53.730;10.010;2023-03-14T17:55:48;31.30;;;20.10;;
20443;SDS011;10381;53.730;10.010;2023-03-14T17:59:49;21.80;;;19.25;;
20443;SDS011;10381;53.730;10.010;2023-03-14T18:03:52;23.25;;;18.27;;
20443;SDS011;10381;53.730;10.010;2023-03-14T18:07:55;26.65;;;18.13;;
20443;SDS011;10381;53.730;10.010;2023-03-14T18:11:55;26.20;;;18.10;;
20443;SDS011;10381;53.730;10.010;2023-03-14T18:15:55;31.65;;;20.20;;
20443;SDS011;10381;53.730;10.010;2023-03-14T18:19:56;24.80;;;18.67;;
20443;SDS011;10381;53.730;10.010;2023-03-14T18:23:56;22.40;;;18.52;;
20443;SDS011;10381;53.730;10.010;2023-03-14T18:27:57;20.52;;;17.73;;
20443;SDS011;10381;53.730;10.010;2023-03-14T18:31:57;20.30;;;17.77;;
20443;SDS011;10381;53.730;10.010;2023-03-14T18:35:57;23.23;;;17.50;;
20443;SDS011;10381;53.730;10.010;2023-03-14T18:39:57;22.83;;;17.90;;
20443;SDS011;10381;53.730;10.010;2023-03-14T18:43:58;23.25;;;18.23;;
20443;SDS011;10381;53.730;10.010;2023-03-14T18:47:58;21.40;;;17.27;;
20443;SDS011;10381;53.730;10.010;2023-03-14T18:51:58;25.77;;;18.45;;
20443;SDS011;10381;53.730;10.010;2023-03-14T18:55:59;24.50;;;19.20;;
20443;SDS011;10381;53.730;10.010;2023-03-14T19:00:00;36.05;;;22.05;;
20443;SDS011;10381;53.730;10.010;2023-03-14T19:04:01;37.88;;;22.02;;
20443;SDS011;10381;53.730;10.010;2023-03-14T19:08:03;29.77;;;21.13;;
20443;SDS011;10381;53.730;10.010;2023-03-14T19:12:03;29.20;;;20.90;;
20443;SDS011;10381;53.730;10.010;2023-03-14T19:16:04;23.27;;;19.88;;
20443;SDS011;10381;53.730;10.010;2023-03-14T19:20:05;23.33;;;20.90;;
20443;SDS011;10381;53.730;10.010;2023-03-14T19:24:05;27.20;;;21.08;;
20443;SDS011;10381;53.730;10.010;2023-03-14T19:28:06;29.20;;;21.63;;
20443;SDS011;10381;53.730;10.010;2023-03-14T19:32:08;25.85;;;20.35;;
20443;SDS011;10381;53.730;10.010;2023-03-14T19:36:13;53.88;;;28.17;;
20443;SDS011;10381;53.730;10.010;2023-03-14T19:40:20;56.35;;;30.17;;
20443;SDS011;10381;53.730;10.010;2023-03-14T19:44:20;29.27;;;21.13;;
20443;SDS011;10381;53.730;10.010;2023-03-14T19:48:20;27.83;;;18.93;;
20443;SDS011;10381;53.730;10.010;2023-03-14T19:52:21;21.23;;;18.92;;
20443;SDS011;10381;53.730;10.010;2023-03-14T19:56:21;27.43;;;19.53;;
20443;SDS011;10381;53.730;10.010;2023-03-14T20:00:22;25.10;;;21.20;;
20443;SDS011;10381;53.730;10.010;2023-03-14T20:04:23;27.60;;;22.02;;
20443;SDS011;10381;53.730;10.010;2023-03-14T20:08:24;31.85;;;23.38;;
20443;SDS011;10381;53.730;10.010;2023-03-14T20:12:25;32.37;;;24.73;;
20443;SDS011;10381;53.730;10.010;2023-03-14T20:16:29;27.00;;;24.17;;
20443;SDS011;10381;53.730;10.010;2023-03-14T20:20:33;27.50;;;22.30;;
20443;SDS011;10381;53.730;10.010;2023-03-14T20:24:33;37.33;;;25.17;;
20443;SDS011;10381;53.730;10.010;2023-03-14T20:28:34;24.92;;;22.20;;
20443;SDS011;10381;53.730;10.010;2023-03-14T20:32:34;30.20;;;22.13;;
20443;SDS011;10381;53.730;10.010;2023-03-14T20:36:34;27.23;;;23.88;;
20443;SDS011;10381;53.730;10.010;2023-03-14T20:40:35;26.77;;;24.30;;
20443;SDS011;10381;53.730;10.010;2023-03-14T20:44:35;45.17;;;24.67;;
20443;SDS011;10381;53.730;10.010;2023-03-14T20:48:35;27.27;;;23.30;;
20443;SDS011;10381;53.730;10.010;2023-03-14T20:52:38;30.25;;;22.40;;
20443;SDS011;10381;53.730;10.010;2023-03-14T20:56:38;36.25;;;24.42;;
20443;SDS011;10381;53.730;10.010;2023-03-14T21:00:39;25.98;;;22.95;;
20443;SDS011;10381;53.730;10.010;2023-03-14T21:04:45;28.25;;;24.65;;
20443;SDS011;10381;53.730;10.010;2023-03-14T21:08:45;28.30;;;25.20;;
20443;SDS011;10381;53.730;10.010;2023-03-14T21:12:47;30.92;;;27.13;;
20443;SDS011;10381;53.730;10.010;2023-03-14T21:16:48;31.73;;;28.80;;
20443;SDS011;10381;53.730;10.010;2023-03-14T21:20:51;37.67;;;33.65;;
20443;SDS011;10381;53.730;10.010;2023-03-14T21:24:53;49.17;;;33.47;;
20443;SDS011;10381;53.730;10.010;2023-03-14T21:28:54;31.70;;;28.35;;
20443;SDS011;10381;53.730;10.010;2023-03-14T21:32:54;31.13;;;27.97;;
20443;SDS011;10381;53.730;10.010;2023-03-14T21:36:54;33.50;;;30.07;;
20443;SDS011;10381;53.730;10.010;2023-03-14T21:40:55;32.67;;;29.65;;
20443;SDS011;10381;53.730;10.010;2023-03-14T21:44:56;37.15;;;33.40;;
20443;SDS011;10381;53.730;10.010;2023-03-14T21:48:57;45.87;;;37.10;;
20443;SDS011;10381;53.730;10.010;2023-03-14T21:52:57;39.83;;;35.70;;
20443;SDS011;10381;53.730;10.010;2023-03-14T21:56:57;44.97;;;38.10;;
20443;SDS011;10381;53.730;10.010;2023-03-14T22:01:02;47.00;;;38.03;;
20443;SDS011;10381;53.730;10.010;2023-03-14T22:05:05;36.08;;;32.47;;
20443;SDS011;10381;53.730;10.010;2023-03-14T22:09:06;51.15;;;45.42;;
20443;SDS011;10381;53.730;10.010;2023-03-14T22:13:06;68.97;;;54.87;;
20443;SDS011;10381;53.730;10.010;2023-03-14T22:17:06;64.07;;;56.63;;
20443;SDS011;10381;53.730;10.010;2023-03-14T22:21:07;73.28;;;65.30;;
20443;SDS011;10381;53.730;10.010;2023-03-14T22:25:07;82.83;;;73.00;;
20443;SDS011;10381;53.730;10.010;2023-03-14T22:29:08;82.88;;;73.57;;
20443;SDS011;10381;53.730;10.010;2023-03-14T22:33:08;78.63;;;70.53;;
20443;SDS011;10381;53.730;10.010;2023-03-14T22:37:10;76.75;;;68.70;;
20443;SDS011;10381;53.730;10.010;2023-03-14T22:41:11;78.18;;;69.85;;
20443;SDS011;10381;53.730;10.010;2023-03-14T22:45:11;82.47;;;71.90;;
20443;SDS011;10381;53.730;10.010;2023-03-14T22:49:11;80.53;;;68.70;;
20443;SDS011;10381;53.730;10.010;2023-03-14T22:53:12;80.10;;;68.65;;
20443;SDS011;10381;53.730;10.010;2023-03-14T22:57:12;72.33;;;60.30;;
20443;SDS011;10381;53.730;10.010;2023-03-14T23:01:12;74.13;;;63.00;;
20443;SDS011;10381;53.730;10.010;2023-03-14T23:05:13;73.60;;;59.23;;
20443;SDS011;10381;53.730;10.010;2023-03-14T23:09:13;68.35;;;57.95;;
20443;SDS011;10381;53.730;10.010;2023-03-14T23:13:13;79.20;;;62.83;;
20443;SDS011;10381;53.730;10.010;2023-03-14T23:17:14;137.95;;;113.18;;
20443;SDS011;10381;53.730;10.010;2023-03-14T23:21:18;149.88;;;130.25;;
20443;SDS011;10381;53.730;10.010;2023-03-14T23:25:22;221.20;;;197.23;;
20443;SDS011;10381;53.730;10.010;2023-03-14T23:29:22;294.02;;;265.13;;
20443;SDS011;10381;53.730;10.010;2023-03-14T23:33:23;460.83;;;416.53;;
20443;SDS011;10381;53.730;10.010;2023-03-14T23:37:24;537.65;;;486.50;;
20443;SDS011;10381;53.730;10.010;2023-03-14T23:41:25;673.05;;;611.80;;
20443;SDS011;10381;53.730;10.010;2023-03-14T23:45:25;820.63;;;744.80;;
20443;SDS011;10381;53.730;10.010;2023-03-14T23:49:25;908.53;;;814.50;;